createdAt,value
2022-09-06T00:00:58.053Z,25.02
2022-09-06T00:03:27.584Z,21.27
2022-09-06T00:05:54.513Z,21.92
2022-09-06T00:08:21.105Z,20.40
2022-09-06T00:10:47.589Z,26.20
2022-09-06T00:13:14.129Z,27.55
2022-09-06T00:15:40.754Z,20.65
2022-09-06T00:18:07.679Z,24.27
2022-09-06T00:20:34.871Z,23.33
2022-09-06T00:23:03.676Z,22.13
2022-09-06T00:25:30.738Z,21.98
2022-09-06T00:27:58.775Z,20.23
2022-09-06T00:30:26.178Z,24.67
2022-09-06T00:32:54.737Z,22.77
2022-09-06T00:35:24.648Z,21.17
2022-09-06T00:37:55.920Z,24.38
2022-09-06T00:40:22.377Z,28.00
2022-09-06T00:42:48.806Z,25.42
2022-09-06T00:45:15.556Z,29.00
2022-09-06T00:47:43.158Z,18.25
2022-09-06T00:50:11.676Z,20.63
2022-09-06T00:52:39.394Z,22.60
2022-09-06T00:55:06.574Z,23.58
2022-09-06T00:57:33.491Z,23.23
2022-09-06T01:00:00.770Z,25.20
2022-09-06T01:02:27.563Z,23.73
2022-09-06T01:04:57.695Z,22.27
2022-09-06T01:07:30.111Z,19.60
2022-09-06T01:10:21.898Z,23.08
2022-09-06T01:13:08.119Z,23.70
2022-09-06T01:16:02.999Z,20.92
2022-09-06T01:18:48.753Z,27.90
2022-09-06T01:21:31.592Z,27.17
2022-09-06T01:27:33.673Z,28.50
2022-09-06T01:30:13.012Z,21.05
2022-09-06T01:33:00.302Z,22.10
2022-09-06T01:35:39.635Z,22.75
2022-09-06T01:38:08.273Z,26.40
2022-09-06T01:40:37.717Z,21.35
2022-09-06T01:43:11.327Z,25.38
2022-09-06T01:46:05.534Z,23.27
2022-09-06T01:48:45.006Z,29.17
2022-09-06T01:51:26.946Z,30.48
2022-09-06T01:54:26.253Z,27.77
2022-09-06T01:57:17.421Z,29.90
2022-09-06T02:00:00.596Z,24.90
2022-09-06T02:02:48.944Z,31.15
2022-09-06T02:05:27.538Z,25.17
2022-09-06T02:07:59.043Z,31.02
2022-09-06T02:10:41.125Z,31.67
2022-09-06T02:13:10.758Z,30.67
2022-09-06T02:15:41.697Z,28.77
2022-09-06T02:18:19.062Z,25.67
2022-09-06T02:20:50.961Z,26.70
2022-09-06T02:23:19.428Z,25.37
2022-09-06T02:25:59.580Z,26.25
2022-09-06T02:28:26.809Z,23.17
2022-09-06T02:31:02.866Z,21.40
2022-09-06T02:33:33.421Z,22.60
2022-09-06T02:36:06.059Z,24.02
2022-09-06T02:41:01.165Z,20.65
2022-09-06T02:43:28.708Z,24.58
2022-09-06T02:45:55.159Z,19.83
2022-09-06T02:48:22.397Z,25.00
2022-09-06T02:50:48.916Z,17.98
2022-09-06T02:53:15.876Z,21.48
2022-09-06T02:55:42.706Z,20.88
2022-09-06T02:58:11.219Z,24.08
2022-09-06T03:00:37.953Z,21.90
2022-09-06T03:03:04.905Z,21.55
2022-09-06T03:05:31.926Z,23.40
2022-09-06T03:07:58.515Z,26.83
2022-09-06T03:10:26.162Z,23.55
2022-09-06T03:12:53.479Z,20.67
2022-09-06T03:15:20.383Z,21.60
2022-09-06T03:17:46.906Z,25.23
2022-09-06T03:20:13.553Z,30.88
2022-09-06T03:22:40.914Z,23.63
2022-09-06T03:25:08.945Z,23.30
2022-09-06T03:27:35.925Z,21.60
2022-09-06T03:30:02.814Z,22.35
2022-09-06T03:32:29.267Z,24.25
2022-09-06T03:34:55.784Z,27.10
2022-09-06T03:37:22.218Z,25.58
2022-09-06T03:39:48.695Z,28.48
2022-09-06T03:42:15.142Z,25.20
2022-09-06T03:44:41.592Z,29.50
2022-09-06T03:47:08.057Z,29.60
2022-09-06T03:49:35.773Z,33.38
2022-09-06T03:52:02.382Z,26.88
2022-09-06T03:54:29.086Z,27.25
2022-09-06T03:56:55.788Z,31.80
2022-09-06T03:59:22.214Z,29.67
2022-09-06T04:01:48.651Z,29.85
2022-09-06T04:04:15.115Z,34.20
2022-09-06T04:06:41.564Z,27.67
2022-09-06T04:09:08.027Z,29.23
2022-09-06T04:11:34.500Z,30.38
2022-09-06T04:14:00.962Z,34.55
2022-09-06T04:16:27.467Z,30.05
2022-09-06T04:18:53.965Z,31.13
2022-09-06T04:21:20.411Z,33.17
2022-09-06T04:23:49.720Z,29.40
2022-09-06T04:26:16.387Z,31.13
2022-09-06T04:28:42.835Z,32.65
2022-09-06T04:31:09.268Z,27.58
2022-09-06T04:33:38.146Z,32.75
2022-09-06T04:36:07.522Z,33.30
2022-09-06T04:38:40.005Z,32.85
2022-09-06T04:41:07.037Z,28.45
2022-09-06T04:43:36.414Z,30.30
2022-09-06T04:46:25.128Z,31.58
2022-09-06T04:48:53.458Z,28.23
2022-09-06T04:51:20.845Z,36.38
2022-09-06T04:53:47.304Z,36.28
2022-09-06T04:56:16.680Z,33.28
2022-09-06T04:58:44.308Z,31.95
2022-09-06T05:01:11.291Z,30.38
2022-09-06T05:03:38.244Z,26.35
2022-09-06T05:06:06.965Z,28.95
2022-09-06T05:08:33.550Z,26.60
2022-09-06T05:11:00.426Z,25.85
2022-09-06T05:13:29.228Z,27.80
2022-09-06T05:15:55.772Z,31.15
2022-09-06T05:18:22.203Z,24.90
2022-09-06T05:20:53.025Z,27.95
2022-09-06T05:23:20.718Z,26.05
2022-09-06T05:25:47.372Z,26.92
2022-09-06T05:28:14.291Z,26.17
2022-09-06T05:30:41.595Z,27.60
2022-09-06T05:33:10.225Z,21.38
2022-09-06T05:35:36.784Z,24.02
2022-09-06T05:38:03.534Z,24.17
2022-09-06T05:40:30.248Z,30.55
2022-09-06T05:42:56.742Z,28.10
2022-09-06T05:45:23.915Z,22.70
2022-09-06T05:47:50.419Z,20.05
2022-09-06T05:50:16.933Z,25.33
2022-09-06T05:52:43.407Z,26.15
2022-09-06T05:55:10.044Z,22.50
2022-09-06T05:57:36.546Z,22.35
2022-09-06T06:00:04.626Z,24.67
2022-09-06T06:02:31.153Z,24.08
2022-09-06T06:04:58.265Z,31.75
2022-09-06T06:07:24.781Z,24.92
2022-09-06T06:09:51.360Z,27.95
2022-09-06T06:12:17.797Z,30.80
2022-09-06T06:14:44.226Z,31.27
2022-09-06T06:17:11.233Z,28.55
2022-09-06T06:19:37.697Z,29.38
2022-09-06T06:22:04.277Z,34.33
2022-09-06T06:24:34.445Z,35.90
2022-09-06T06:27:00.908Z,30.25
2022-09-06T06:29:27.439Z,31.83
2022-09-06T06:31:53.962Z,34.05
2022-09-06T06:34:21.852Z,32.42
2022-09-06T06:36:48.358Z,37.17
2022-09-06T06:39:17.586Z,33.60
2022-09-06T06:41:44.275Z,37.63
2022-09-06T06:44:10.820Z,38.25
2022-09-06T06:46:38.504Z,37.97
2022-09-06T06:49:05.369Z,37.00
2022-09-06T06:51:33.766Z,39.92
2022-09-06T06:54:00.255Z,45.17
2022-09-06T06:56:35.202Z,38.40
2022-09-06T06:59:04.286Z,40.20
2022-09-06T07:01:33.153Z,37.00
2022-09-06T07:03:59.765Z,39.28
2022-09-06T07:09:15.744Z,39.25
2022-09-06T07:11:42.220Z,43.80
2022-09-06T07:14:08.925Z,36.45
2022-09-06T07:16:35.475Z,43.28
2022-09-06T07:19:02.195Z,36.38
2022-09-06T07:26:37.569Z,34.58
2022-09-06T07:29:05.807Z,39.17
2022-09-06T07:34:20.829Z,28.80
2022-09-06T07:36:48.163Z,31.95
2022-09-06T07:39:14.657Z,26.65
2022-09-06T07:41:41.111Z,31.40
2022-09-06T07:44:07.556Z,25.85
2022-09-06T07:46:34.443Z,27.45
2022-09-06T07:49:04.117Z,25.15
2022-09-06T07:51:30.959Z,27.40
2022-09-06T07:54:13.243Z,22.17
2022-09-06T07:56:43.977Z,24.85
2022-09-06T07:59:10.564Z,28.52
2022-09-06T08:01:38.549Z,24.63
2022-09-06T08:04:13.967Z,27.02
2022-09-06T08:09:29.959Z,28.55
2022-09-06T08:11:56.515Z,29.58
2022-09-06T08:14:23.064Z,27.02
2022-09-06T08:16:52.587Z,29.45
2022-09-06T08:19:19.029Z,31.77
2022-09-06T08:21:45.475Z,34.85
2022-09-06T08:24:11.937Z,30.00
2022-09-06T08:26:40.483Z,29.67
2022-09-06T08:29:08.660Z,28.67
2022-09-06T08:31:38.908Z,31.48
2022-09-06T08:34:06.090Z,34.30
2022-09-06T08:36:33.674Z,21.25
2022-09-06T08:39:02.270Z,24.75
2022-09-06T08:41:49.816Z,26.08
2022-09-06T08:47:12.219Z,19.52
2022-09-06T08:49:52.738Z,24.40
2022-09-06T08:53:13.102Z,28.25
2022-09-06T08:55:41.458Z,32.10
2022-09-06T08:58:32.386Z,23.63
2022-09-06T09:01:15.820Z,16.55
2022-09-06T09:03:43.749Z,16.85
2022-09-06T09:06:11.106Z,14.98
2022-09-06T09:08:59.719Z,16.50
2022-09-06T09:11:26.389Z,13.68
2022-09-06T09:14:00.303Z,13.50
2022-09-06T09:16:27.008Z,15.45
2022-09-06T09:19:00.979Z,10.30
2022-09-06T09:21:31.185Z,12.35
2022-09-06T09:24:03.257Z,13.35
2022-09-06T09:26:36.833Z,12.77
2022-09-06T09:29:06.385Z,13.30
2022-09-06T09:31:53.462Z,13.98
2022-09-06T09:34:33.990Z,9.48
2022-09-06T09:37:49.686Z,13.93
2022-09-06T09:40:25.327Z,10.65
2022-09-06T09:42:54.758Z,7.72
2022-09-06T09:45:28.964Z,8.00
2022-09-06T09:47:55.879Z,8.30
2022-09-06T09:50:35.692Z,7.28
2022-09-06T09:53:13.737Z,7.72
2022-09-06T09:55:41.655Z,9.07
2022-09-06T09:58:20.185Z,16.20
2022-09-06T10:00:46.714Z,7.95
2022-09-06T10:03:19.050Z,6.85
2022-09-06T10:06:02.537Z,8.30
2022-09-06T10:08:33.243Z,8.27
2022-09-06T10:11:00.232Z,8.00
2022-09-06T10:13:31.569Z,7.57
2022-09-06T10:15:59.875Z,7.10
2022-09-06T10:18:35.542Z,8.48
2022-09-06T10:21:13.509Z,6.00
2022-09-06T10:26:58.865Z,8.63
2022-09-06T10:29:55.897Z,53.03
2022-09-06T10:32:51.551Z,8.60
2022-09-06T10:35:26.492Z,7.38
2022-09-06T10:38:24.104Z,4.70
2022-09-06T10:41:21.422Z,6.85
2022-09-06T10:44:11.834Z,7.50
2022-09-06T10:46:43.479Z,7.97
2022-09-06T10:49:16.430Z,8.23
2022-09-06T10:51:46.694Z,10.55
2022-09-06T10:54:17.187Z,5.53
2022-09-06T10:56:56.442Z,14.10
2022-09-06T10:59:38.782Z,6.55
2022-09-06T11:02:05.744Z,6.57
2022-09-06T11:07:30.282Z,11.48
2022-09-06T11:12:41.865Z,8.30
2022-09-06T11:15:13.130Z,7.47
2022-09-06T11:17:54.414Z,11.32
2022-09-06T11:20:39.411Z,7.55
2022-09-06T11:23:27.702Z,9.10
2022-09-06T11:26:04.112Z,12.45
2022-09-06T11:28:39.208Z,8.35
2022-09-06T11:34:07.366Z,6.97
2022-09-06T11:36:45.041Z,6.55
2022-09-06T11:39:11.522Z,7.38
2022-09-06T11:41:40.785Z,7.53
2022-09-06T11:44:10.320Z,7.88
2022-09-06T11:46:40.935Z,8.32
2022-09-06T11:49:16.348Z,7.88
2022-09-06T11:51:44.928Z,8.10
2022-09-06T11:54:14.195Z,6.35
2022-09-06T11:56:46.705Z,10.55
2022-09-06T11:59:16.074Z,8.25
2022-09-06T12:02:00.235Z,10.63
2022-09-06T12:05:00.433Z,8.68
2022-09-06T12:07:31.899Z,9.25
2022-09-06T12:10:02.604Z,9.05
2022-09-06T12:12:45.786Z,5.22
2022-09-06T12:15:31.966Z,7.05
2022-09-06T12:17:59.941Z,6.95
2022-09-06T12:20:48.475Z,7.50
2022-09-06T12:23:50.640Z,10.13
2022-09-06T12:29:10.595Z,10.45
2022-09-06T12:31:44.099Z,8.52
2022-09-06T12:34:20.032Z,9.07
2022-09-06T12:37:05.641Z,9.13
2022-09-06T12:39:32.298Z,11.02
2022-09-06T12:42:05.812Z,5.82
2022-09-06T12:44:38.594Z,8.82
2022-09-06T12:47:11.489Z,8.50
2022-09-06T12:49:39.464Z,7.97
2022-09-06T12:52:15.636Z,12.75
2022-09-06T12:54:48.721Z,7.68
2022-09-06T12:57:24.305Z,8.38
2022-09-06T12:59:56.295Z,11.30
2022-09-06T13:02:42.698Z,12.27
2022-09-06T13:05:12.212Z,8.73
2022-09-06T13:07:46.751Z,13.77
2022-09-06T13:10:16.442Z,7.43
2022-09-06T13:12:50.329Z,7.53
2022-09-06T13:15:26.989Z,7.85
2022-09-06T13:18:14.653Z,13.38
2022-09-06T13:20:41.168Z,7.18
2022-09-06T13:23:10.662Z,13.57
2022-09-06T13:25:51.545Z,8.18
2022-09-06T13:28:26.732Z,8.57
2022-09-06T13:31:35.600Z,9.57
2022-09-06T13:34:02.076Z,8.55
2022-09-06T13:36:33.683Z,9.75
2022-09-06T13:39:03.447Z,11.20
2022-09-06T13:41:37.367Z,8.30
2022-09-06T13:44:18.541Z,6.57
2022-09-06T13:46:45.260Z,11.83
2022-09-06T13:49:11.853Z,8.27
2022-09-06T13:51:41.925Z,11.02
2022-09-06T13:54:11.297Z,9.25
2022-09-06T13:56:39.251Z,12.18
2022-09-06T13:59:07.205Z,11.35
2022-09-06T14:01:34.084Z,6.18
2022-09-06T14:04:04.022Z,7.47
2022-09-06T14:06:33.574Z,12.75
2022-09-06T14:09:07.422Z,7.88
2022-09-06T14:11:35.353Z,7.88
2022-09-06T14:14:01.837Z,9.05
2022-09-06T14:16:28.936Z,8.52
2022-09-06T14:18:55.622Z,7.72
2022-09-06T14:21:22.104Z,7.18
2022-09-06T14:23:51.000Z,8.10
2022-09-06T14:26:19.091Z,5.40
2022-09-06T14:28:45.633Z,8.43
2022-09-06T14:31:17.510Z,5.60
2022-09-06T14:33:44.390Z,5.93
2022-09-06T14:36:16.780Z,5.78
2022-09-06T14:38:45.307Z,6.00
2022-09-06T14:41:14.463Z,6.30
2022-09-06T14:43:48.998Z,5.82
2022-09-06T14:46:18.117Z,8.63
2022-09-06T14:48:45.466Z,8.45
2022-09-06T14:51:17.765Z,9.57
2022-09-06T14:53:45.301Z,7.22
2022-09-06T14:56:12.985Z,11.35
2022-09-06T14:58:40.473Z,8.82
2022-09-06T15:01:16.136Z,8.57
2022-09-06T15:03:46.973Z,12.43
2022-09-06T15:06:13.482Z,5.10
2022-09-06T15:08:39.972Z,6.28
2022-09-06T15:11:08.279Z,4.68
2022-09-06T15:13:37.133Z,5.07
2022-09-06T15:16:05.586Z,4.43
2022-09-06T15:18:33.115Z,7.97
2022-09-06T15:21:09.689Z,4.65
2022-09-06T15:23:36.847Z,4.88
2022-09-06T15:26:06.068Z,9.02
2022-09-06T15:28:37.343Z,6.35
2022-09-06T15:31:04.646Z,8.32
2022-09-06T15:33:32.740Z,6.28
2022-09-06T15:36:05.820Z,5.95
2022-09-06T15:38:36.952Z,6.10
2022-09-06T15:41:14.841Z,5.72
2022-09-06T15:43:47.944Z,5.97
2022-09-06T15:46:16.139Z,6.75
2022-09-06T15:48:45.624Z,8.45
2022-09-06T15:51:14.949Z,9.85
2022-09-06T15:53:42.104Z,11.45
2022-09-06T15:56:12.356Z,7.20
2022-09-06T15:58:39.210Z,13.13
2022-09-06T16:01:10.197Z,12.05
2022-09-06T16:03:39.200Z,8.35
2022-09-06T16:08:55.561Z,10.45
2022-09-06T16:11:21.985Z,5.72
2022-09-06T16:13:48.520Z,8.05
2022-09-06T16:16:16.671Z,11.68
2022-09-06T16:18:46.532Z,7.80
2022-09-06T16:21:19.138Z,9.98
2022-09-06T16:23:59.988Z,8.20
2022-09-06T16:26:29.356Z,8.57
2022-09-06T16:28:55.862Z,8.80
2022-09-06T16:31:22.643Z,7.75
2022-09-06T16:33:50.128Z,12.45
2022-09-06T16:36:18.889Z,12.85
2022-09-06T16:38:45.662Z,7.95
2022-09-06T16:41:19.654Z,13.73
2022-09-06T16:43:49.146Z,13.93
2022-09-06T16:46:16.159Z,18.80
2022-09-06T16:48:42.664Z,12.68
2022-09-06T16:51:11.581Z,15.52
2022-09-06T16:53:40.315Z,13.85
2022-09-06T16:56:11.537Z,12.60
2022-09-06T16:58:39.485Z,12.30
2022-09-06T17:01:06.200Z,15.70
2022-09-06T17:03:34.211Z,14.90
2022-09-06T17:06:00.688Z,19.77
2022-09-06T17:08:27.201Z,12.50
2022-09-06T17:10:53.697Z,12.80
2022-09-06T17:13:20.182Z,17.40
2022-09-06T17:16:12.277Z,15.77
2022-09-06T17:18:39.203Z,10.10
2022-09-06T17:21:06.076Z,13.18
2022-09-06T17:23:32.961Z,12.23
2022-09-06T17:26:00.098Z,16.83
2022-09-06T17:28:27.004Z,16.00
2022-09-06T17:30:53.551Z,18.88
2022-09-06T17:33:22.008Z,17.05
2022-09-06T17:35:48.524Z,17.48
2022-09-06T17:38:16.196Z,12.68
2022-09-06T17:40:43.376Z,16.60
2022-09-06T17:43:10.004Z,14.70
2022-09-06T17:45:38.122Z,15.60
2022-09-06T17:48:05.153Z,18.15
2022-09-06T17:50:32.497Z,15.52
2022-09-06T17:53:00.040Z,15.85
2022-09-06T17:55:28.842Z,20.30
2022-09-06T17:57:58.820Z,19.73
2022-09-06T18:00:26.189Z,20.65
2022-09-06T18:02:52.886Z,18.05
2022-09-06T18:05:19.416Z,23.23
2022-09-06T18:07:46.104Z,20.55
2022-09-06T18:10:14.974Z,21.63
2022-09-06T18:12:42.453Z,17.27
2022-09-06T18:15:09.611Z,15.45
2022-09-06T18:17:38.741Z,17.92
2022-09-06T18:20:06.048Z,20.23
2022-09-06T18:22:33.002Z,19.42
2022-09-06T18:24:59.586Z,21.73
2022-09-06T18:27:26.035Z,17.20
2022-09-06T18:29:52.525Z,16.60
2022-09-06T18:32:18.980Z,18.27
2022-09-06T18:34:45.459Z,18.48
2022-09-06T18:37:12.145Z,18.92
2022-09-06T18:39:39.558Z,19.10
2022-09-06T18:42:11.030Z,19.75
2022-09-06T18:44:38.189Z,23.88
2022-09-06T18:47:07.451Z,22.70
2022-09-06T18:49:35.211Z,17.58
2022-09-06T18:52:05.839Z,19.55
2022-09-06T18:54:33.015Z,24.27
2022-09-06T18:56:59.830Z,20.05
2022-09-06T18:59:26.770Z,26.38
2022-09-06T19:01:53.278Z,22.25
2022-09-06T19:04:19.958Z,24.77
2022-09-06T19:06:46.952Z,26.15
2022-09-06T19:09:16.231Z,23.80
2022-09-06T19:11:45.450Z,22.73
2022-09-06T19:14:12.289Z,23.75
2022-09-06T19:16:38.833Z,23.92
2022-09-06T19:19:08.706Z,25.33
2022-09-06T19:21:40.811Z,27.63
2022-09-06T19:24:10.042Z,25.98
2022-09-06T19:26:40.200Z,25.83
2022-09-06T19:29:11.059Z,24.33
2022-09-06T19:31:38.380Z,26.80
2022-09-06T19:34:05.459Z,28.00
2022-09-06T19:36:32.741Z,25.10
2022-09-06T19:39:04.409Z,25.08
2022-09-06T19:41:39.390Z,27.50
2022-09-06T19:44:08.417Z,29.63
2022-09-06T19:46:36.021Z,31.67
2022-09-06T19:49:03.295Z,31.08
2022-09-06T19:51:30.116Z,29.45
2022-09-06T19:54:00.028Z,25.58
2022-09-06T19:56:31.519Z,32.33
2022-09-06T19:58:59.566Z,20.88
2022-09-06T20:01:29.156Z,23.65
2022-09-06T20:03:56.426Z,25.67
2022-09-06T20:06:23.225Z,18.70
2022-09-06T20:08:54.046Z,19.15
2022-09-06T20:11:22.667Z,13.85
2022-09-06T20:13:49.785Z,14.48
2022-09-06T20:16:20.473Z,16.67
2022-09-06T20:18:47.639Z,15.57
2022-09-06T20:21:14.879Z,18.55
2022-09-06T20:23:41.549Z,16.95
2022-09-06T20:26:15.577Z,17.70
2022-09-06T20:28:44.035Z,21.25
2022-09-06T20:31:17.268Z,17.05
2022-09-06T20:33:49.322Z,17.92
2022-09-06T20:36:17.142Z,14.90
2022-09-06T20:38:44.939Z,15.57
2022-09-06T20:41:12.970Z,15.60
2022-09-06T20:43:40.438Z,18.08
2022-09-06T20:46:15.818Z,19.95
2022-09-06T20:48:44.950Z,15.98
2022-09-06T20:51:15.765Z,18.35
2022-09-06T20:53:42.590Z,17.00
2022-09-06T20:56:18.488Z,22.17
2022-09-06T20:58:56.814Z,18.92
2022-09-06T21:01:25.861Z,16.73
2022-09-06T21:03:55.610Z,19.17
2022-09-06T21:06:23.782Z,17.48
2022-09-06T21:08:50.733Z,18.40
2022-09-06T21:11:18.120Z,16.50
2022-09-06T21:13:49.384Z,14.13
2022-09-06T21:16:18.348Z,17.30
2022-09-06T21:18:51.582Z,19.13
2022-09-06T21:21:18.173Z,19.80
2022-09-06T21:23:44.699Z,19.13
2022-09-06T21:26:17.449Z,22.88
2022-09-06T21:28:45.554Z,18.98
2022-09-06T21:31:23.798Z,20.20
2022-09-06T21:33:55.431Z,17.73
2022-09-06T21:36:21.854Z,22.45
2022-09-06T21:38:50.569Z,18.45
2022-09-06T21:41:18.234Z,21.17
2022-09-06T21:43:45.712Z,23.95
2022-09-06T21:46:17.532Z,22.13
2022-09-06T21:48:46.751Z,19.23
2022-09-06T21:51:16.136Z,20.40
2022-09-06T21:53:44.902Z,23.15
2022-09-06T21:56:12.138Z,19.95
2022-09-06T21:58:39.940Z,19.63
2022-09-06T22:01:06.837Z,20.75
2022-09-06T22:03:36.706Z,22.08
2022-09-06T22:06:11.482Z,20.10
2022-09-06T22:08:38.873Z,18.17
2022-09-06T22:11:15.137Z,17.92
2022-09-06T22:13:42.545Z,19.13
2022-09-06T22:16:10.638Z,23.13
2022-09-06T22:18:37.409Z,22.75
2022-09-06T22:21:18.517Z,17.92
2022-09-06T22:23:56.960Z,20.15
2022-09-06T22:26:25.799Z,19.33
2022-09-06T22:28:56.930Z,19.95
2022-09-06T22:31:24.722Z,22.35
2022-09-06T22:33:51.513Z,23.05
2022-09-06T22:36:18.765Z,21.63
2022-09-06T22:38:45.258Z,20.27
2022-09-06T22:41:12.041Z,29.23
2022-09-06T22:43:38.832Z,20.50
2022-09-06T22:46:07.781Z,21.73
2022-09-06T22:48:35.039Z,22.13
2022-09-06T22:51:02.622Z,22.60
2022-09-06T22:53:30.537Z,24.65
2022-09-06T22:55:57.173Z,25.60
2022-09-06T22:58:25.050Z,24.30
2022-09-06T23:00:51.605Z,24.13
2022-09-06T23:03:18.802Z,23.65
2022-09-06T23:05:45.354Z,34.78
2022-09-06T23:08:12.101Z,24.17
2022-09-06T23:10:41.735Z,21.15
2022-09-06T23:13:09.195Z,25.95
2022-09-06T23:15:36.945Z,24.70
2022-09-06T23:18:04.109Z,24.00
2022-09-06T23:20:30.860Z,25.23
2022-09-06T23:22:57.300Z,29.48
2022-09-06T23:25:23.902Z,23.10
2022-09-06T23:27:50.364Z,27.00
2022-09-06T23:30:17.022Z,28.83
2022-09-06T23:32:43.484Z,28.48
2022-09-06T23:35:09.928Z,28.40
2022-09-06T23:37:36.683Z,33.25
2022-09-06T23:40:07.026Z,29.15
2022-09-06T23:42:35.492Z,32.50
2022-09-06T23:45:01.921Z,32.40
2022-09-06T23:47:28.495Z,31.85
2022-09-06T23:49:54.899Z,42.67
2022-09-06T23:52:21.334Z,38.63
2022-09-06T23:54:47.822Z,42.22
2022-09-06T23:57:14.286Z,46.70
2022-09-06T23:59:40.730Z,52.53
